Murray City, OH (43144)

12:28 PM EDT on July 25, 2016 (GMT -0400)
kimberly ohio | | Change Station
Active Advisory: Heat Advisory

Elev 830 ft 39.41 °N, 82.23 °W | Updated 14 minutes ago

Scattered Clouds
Scattered Clouds
92.3 °F
Feels Like 109 °F
N
1.7
Wind Variable Wind from NE

Today
High -- | Low -- °F
--% Chance of Precip.
Yesterday
High -- | Low -- °F
Precip. -- in
Pressure 30.00 in
Visibility 10.0 miles
Clouds Scattered Clouds 3300 ft
Scattered Clouds 4100 ft
Scattered Clouds 5000 ft
Heat Index 109 °F
Dew Point 79 °F
Humidity 65%
Rainfall 0.00 in
Snow Depth Not available.
6:22 AM 8:47 PM
Waning Gibbous, 64% visible
METAR KUNI 251615Z AUTO 26007KT 10SM SCT033 SCT041 SCT050 31/23 A3000 RMK AO2 T03080228
Pressure 30.00 in
Visibility 10.0 miles
Clouds Scattered Clouds 3300 ft
Scattered Clouds 4100 ft
Scattered Clouds 5000 ft
Heat Index 109 °F
Dew Point 79 °F
Humidity 65%
Rainfall 0.00 in
Snow Depth Not available.
6:22 AM 8:47 PM
Waning Gibbous, 64% visible
METAR KUNI 251615Z AUTO 26007KT 10SM SCT033 SCT041 SCT050 31/23 A3000 RMK AO2 T03080228

10-Day Weather Forecast

Almanac

Astronomy

Jul. 25, 2016 Rise Set
Actual Time
Civil Twilight
Nautical Twilight
Astronomical Twilight
Moon
Length of Visible Light
Length of Day
Tomorrow will be .
, % of the Moon is Illuminated

Today's Extremes

State Highs State Lows

Community

WunderPhotos

Upload Photos

1,927,345 photos uploaded!

WunderBlog® & News

Nearby

Air Quality

  Air Quality AQ Index Pollutant
Not available.

Snow Depth

Station Depth Elevation

Earthquake Activity

City Distance Mag. Time & Date
Minimum magnitude displayed is 2.5.

Coastal Water Temperatures

Place Temperature

Stations

Nearby Weather Stations

Station Location Temp. Windchill Dew Point Humidity Wind Precip. Elev Updated Type
                   

Watches & Warnings

Heat Advisory
Issued: 10:53 AM EDT Jul. 25, 2016 – National Weather Service

... Heat advisory remains in effect until 8 PM EDT this evening...

* heat index values... 100 to 104 due to temperatures in the
lower 90s... and dewpoints in the lower to middle 70s.

* Timing... highest temperatures and heat indices will occur
during the afternoon to early evening hours.

* Impacts... heat stroke... heat exhaustion and other heat related
illnesses will be possible... especially if you spend a
significant amount of time outdoors... or are involved in any
strenuous outdoor activity.

Precautionary/preparedness actions...

Reduce outdoor activities... especially from mid-morning through
the afternoon. Wear light weight and loose fitting clothing and
drink plenty of water. If possible... spend more time in air
conditioned or well ventilated places.

To reduce risk during outdoor work the occupational safety and
health administration recommends scheduling frequent rest breaks
in shaded or air conditioned environments. Anyone overcome by
heat should be moved to a cool and shaded location. Heat stroke
is an emergency... call 911.